메인 페이지
METAR-TAF:

METAR-TAF

공항 :

덴버, 콜로라도, 미국

덴버 국제공항

위도: 39-49-58N, 경도: 104-39-27W, 고도: 1655m

현재 날씨관측

예보는 1 시간 6분 전, 17:53시(UTC)에 발표되었습니다.
서남서11kt
온도 13°C
습도 22%
기압 1009 hPa
시정: 16.1km
고도 10000ft 상공 구름 조금
고도 22000ft 상공 구름 많음

METAR: KDEN 191753Z 24011KT 10SM FEW100 BKN220 13/M08 A2979 RMK AO2 SLP051 T01281078 10133 20044 58001

시각: 11:59 (18:59 UTC)

예보

예보는 1 시간 20분 전, 17:39시(UTC)에 발표되었습니다.
예보 대상 시간: 19일 18시부터 20일 24시까지 (UTC)
서남서11kt
시정: 10km
고도 14000ft 상공 구름 조금
고도 22000ft 상공 구름 많음
20일 0300시부터 (UTC)
남남서10kt
시정: 10km
고도 14000ft 상공 구름 조금
고도 22000ft 상공 구름 많음
20일 2000시부터 (UTC)
9kt
시정: 10km
고도 9000ft 상공 구름 조금
고도 14000ft 상공 구름 보통
고도 20000ft 상공 구름 많음

TAF: KDEN 191739Z 1918/2024 25011KT P6SM FEW140 BKN220 FM200300 20010KT P6SM FEW140 BKN220 FM202000 08009KT P6SM FEW090 SCT140 BKN200

4,000개 이상의 공항 관측 자료 및 예보 (METAR 및 TAF 보고).

지도상에서 검색 가능한 기상관측소가 노란 점과 빨간 점으로 표시되어 있습니다.

기상관측소 명을 보려면 표시 위로 마우스를 이동하세요.

날씨 관측과 예보를 보려면 클릭하세요.

지도 변경 : 확대하려면 엑스 표시가 있는 녹색 버튼, 축소하려면 빼기 표시가 있는 녹색 버튼, 다음 페이지의 지도를 보려면 녹색 화살표를 클릭하세요.


METAR-TAF: